TimeADT,TemperatureF,Dew PointF,Humidity,Sea Level PressureIn,VisibilityMPH,Wind Direction,Wind SpeedMPH,Gust SpeedMPH,PrecipitationIn,Events,Conditions,WindDirDegrees,DateUTC
12:00 AM,58,49,65,30.28,9,NNW,10.4,,,,,330,2012-10-09 03:00:00
12:00 AM,59.0,50.0,72,30.28,9.0,NNW,9.2,-,N/A,,Mostly Cloudy,340,2012-10-09 03:00:00
1:00 AM,57.2,48.2,72,30.30,9.0,North,8.1,-,N/A,,Partly Cloudy,350,2012-10-09 04:00:00
3:00 AM,57.2,46.4,67,30.34,9.0,NNW,12.7,-,N/A,,Partly Cloudy,340,2012-10-09 06:00:00
5:00 AM,55.4,44.6,67,30.35,9.0,North,12.7,-,N/A,,Clear,360,2012-10-09 08:00:00
6:00 AM,55,44,58,30.36,9,North,10.4,,,,,0,2012-10-09 09:00:00
6:00 AM,55.4,44.6,67,30.36,9.0,North,10.4,-,N/A,,Clear,360,2012-10-09 09:00:00
6:58 AM,55.4,44.6,67,30.36,9.0,North,10.4,-,N/A,Rain,Light Rain,10,2012-10-09 09:58:00
7:00 AM,55.4,44.6,67,30.37,9.0,North,11.5,-,N/A,Rain,Light Rain,10,2012-10-09 10:00:00
7:16 AM,55.4,44.6,67,30.38,9.0,North,10.4,-,N/A,,Scattered Clouds,10,2012-10-09 10:16:00
8:00 AM,55.4,44.6,67,30.39,9.0,NNE,9.2,-,N/A,,Partly Cloudy,20,2012-10-09 11:00:00
9:00 AM,56,46,61,30.40,9,NNE,10.4,,,,,20,2012-10-09 12:00:00
9:00 AM,55.4,46.4,72,30.40,9.0,NNE,9.2,-,N/A,,Scattered Clouds,30,2012-10-09 12:00:00
9:04 AM,55.4,46.4,72,30.40,9.0,NNE,9.2,-,N/A,Rain,Light Rain,30,2012-10-09 12:04:00
10:00 AM,55.4,48.2,77,30.40,9.0,NE,9.2,-,N/A,Rain,Light Rain,40,2012-10-09 13:00:00
11:00 AM,55.4,50.0,82,30.39,9.0,NNE,12.7,-,N/A,,Overcast,30,2012-10-09 14:00:00
11:32 AM,55.4,50.0,82,30.38,9.0,NE,12.7,-,N/A,Rain,Light Rain,40,2012-10-09 14:32:00
11:39 AM,55.4,50.0,82,30.37,9.0,NE,12.7,-,N/A,Rain,Light Rain,40,2012-10-09 14:39:00
12:00 PM,55,50,78,30.37,9,NE,13.8,,,Rain,Light Rain,50,2012-10-09 15:00:00
12:00 PM,55.4,50.0,82,30.37,9.0,NE,13.8,-,N/A,Rain,Light Rain,40,2012-10-09 15:00:00
12:10 PM,55.4,50.0,82,30.36,9.0,NE,12.7,-,N/A,,Mostly Cloudy,50,2012-10-09 15:10:00
12:46 PM,55.4,50.0,82,30.34,9.0,NE,15.0,-,N/A,Rain,Light Rain,50,2012-10-09 15:46:00
1:00 PM,55.4,51.8,88,30.33,9.0,NE,16.1,-,N/A,Rain,Light Rain,50,2012-10-09 16:00:00
1:57 PM,55.4,51.8,88,30.32,9.0,ENE,15.0,-,N/A,,Overcast,60,2012-10-09 16:57:00
2:00 PM,55.4,51.8,88,30.32,9.0,ENE,17.3,-,N/A,,Overcast,70,2012-10-09 17:00:00
2:22 PM,55.4,51.8,88,30.33,9.0,ENE,13.8,-,N/A,Rain,Light Rain,70,2012-10-09 17:22:00
2:25 PM,55.4,51.8,88,30.32,9.0,ENE,15.0,-,N/A,Rain,Light Rain,70,2012-10-09 17:25:00
2:50 PM,55.4,51.8,88,30.30,6.0,ENE,16.1,21.9,N/A,Rain,Light Rain,70,2012-10-09 17:50:00
3:00 PM,55,51,82,30.31,7,East,16.1,,,,Unknown Precipitation,80,2012-10-09 18:00:00
3:00 PM,55.4,51.8,88,30.31,8.0,East,17.3,-,N/A,Rain,Light Rain,80,2012-10-09 18:00:00
3:09 PM,55.4,51.8,88,30.31,9.0,East,15.0,-,N/A,Rain,Light Rain,80,2012-10-09 18:09:00
3:13 PM,55.4,51.8,88,30.31,8.0,East,12.7,-,N/A,Rain,Light Rain,80,2012-10-09 18:13:00
3:38 PM,55.4,51.8,88,30.30,6.0,East,12.7,-,N/A,Rain,Light Rain,80,2012-10-09 18:38:00
3:48 PM,55.4,51.8,88,30.29,6.0,East,16.1,-,N/A,Rain,Light Rain,80,2012-10-09 18:48:00
3:52 PM,55.4,51.8,88,30.28,6.0,East,15.0,-,N/A,Rain,Light Rain,80,2012-10-09 18:52:00
4:00 PM,55.4,51.8,88,30.28,6.0,East,15.0,-,N/A,Rain,Light Rain,80,2012-10-09 19:00:00
4:08 PM,55.4,51.8,88,30.27,7.0,East,13.8,-,N/A,Rain,Light Rain,90,2012-10-09 19:08:00
4:33 PM,55.4,51.8,88,30.28,9.0,East,12.7,18.4,N/A,Rain,Light Rain,90,2012-10-09 19:33:00
4:38 PM,55.4,51.8,88,30.28,9.0,East,12.7,-,N/A,Rain,Light Rain,80,2012-10-09 19:38:00
4:42 PM,55.4,51.8,88,30.28,9.0,East,13.8,-,N/A,Rain,Light Rain,80,2012-10-09 19:42:00
4:44 PM,55.4,51.8,88,30.27,9.0,East,12.7,-,N/A,,Overcast,80,2012-10-09 19:44:00
4:51 PM,55.4,51.8,88,30.27,9.0,East,12.7,-,N/A,,Overcast,90,2012-10-09 19:51:00
4:53 PM,55.4,50.0,82,30.27,9.0,East,13.8,-,N/A,Rain,Light Rain,90,2012-10-09 19:53:00
5:00 PM,55.4,50.0,82,30.27,9.0,East,13.8,-,N/A,Rain,Light Rain,80,2012-10-09 20:00:00
5:15 PM,53.6,48.2,82,30.26,9.0,East,13.8,-,N/A,,Mostly Cloudy,80,2012-10-09 20:15:00
5:18 PM,53.6,50.0,88,30.25,9.0,East,13.8,-,N/A,,Scattered Clouds,80,2012-10-09 20:18:00
6:00 PM,55,47,67,30.22,9,ENE,18.4,,,,Overcast,70,2012-10-09 21:00:00
6:00 PM,55.4,46.4,72,30.22,9.0,ENE,20.7,-,N/A,,Overcast,70,2012-10-09 21:00:00
6:06 PM,55.4,48.2,77,30.22,9.0,ENE,18.4,24.2,N/A,,Overcast,70,2012-10-09 21:06:00
6:39 PM,55.4,50.0,82,30.21,9.0,ENE,16.1,24.2,N/A,,Scattered Clouds,70,2012-10-09 21:39:00
7:00 PM,55.4,51.8,88,30.20,9.0,ENE,20.7,-,N/A,,Overcast,70,2012-10-09 22:00:00
7:08 PM,55.4,51.8,88,30.20,9.0,ENE,16.1,24.2,N/A,Rain,Light Rain,70,2012-10-09 22:08:00
8:00 PM,55.4,48.2,77,30.18,9.0,East,12.7,18.4,N/A,Rain,Light Rain,80,2012-10-09 23:00:00
8:02 PM,55.4,48.2,77,30.18,9.0,East,12.7,-,N/A,Rain,Light Rain,80,2012-10-09 23:02:00
8:06 PM,55.4,50.0,82,30.18,9.0,East,15.0,-,N/A,,Overcast,80,2012-10-09 23:06:00
8:17 PM,55.4,51.8,88,30.18,9.0,East,15.0,-,N/A,Rain,Light Rain,80,2012-10-09 23:17:00
9:00 PM,56,52,83,30.17,7,East,16.1,,,,Unknown Precipitation,80,2012-10-10 00:00:00
9:00 PM,55.4,51.8,88,30.17,8.0,East,17.3,-,N/A,Rain,Light Rain,90,2012-10-10 00:00:00
9:10 PM,55.4,51.8,88,30.16,9.0,East,16.1,-,N/A,Rain,Light Rain,80,2012-10-10 00:10:00
9:23 PM,55.4,51.8,88,30.16,7.0,ENE,18.4,-,N/A,Rain,Light Rain,70,2012-10-10 00:23:00
9:54 PM,55.4,53.6,94,30.15,2.5,ENE,20.7,-,N/A,Rain,Light Rain,60,2012-10-10 00:54:00
9:55 PM,57.2,53.6,88,30.15,2.5,ENE,21.9,-,N/A,Rain,Light Rain,60,2012-10-10 00:55:00
10:00 PM,57.2,53.6,88,30.15,2.4,ENE,19.6,-,N/A,Rain,Light Rain,60,2012-10-10 01:00:00
10:18 PM,57.2,53.6,88,30.15,3.5,ENE,18.4,-,N/A,Rain,Light Rain,70,2012-10-10 01:18:00
10:38 PM,57.2,53.6,88,30.15,5.0,ENE,18.4,25.3,N/A,Rain,Light Rain,70,2012-10-10 01:38:00
11:00 PM,57.2,53.6,88,30.15,3.5,ENE,19.6,25.3,N/A,Rain,Light Rain,60,2012-10-10 02:00:00
11:12 PM,57.2,55.4,94,30.14,3.5,East,17.3,24.2,N/A,Rain,Light Rain,80,2012-10-10 02:12:00
11:24 PM,57.2,53.6,88,30.14,6.0,ENE,19.6,27.6,N/A,,Overcast,70,2012-10-10 02:24:00
11:34 PM,57.2,55.4,94,30.14,5.0,ENE,19.6,-,N/A,,Overcast,70,2012-10-10 02:34:00
11:39 PM,57.2,53.6,88,30.13,3.5,ENE,19.6,27.6,N/A,Rain,Light Rain,70,2012-10-10 02:39:00
11:49 PM,57.2,53.6,88,30.13,3.5,ENE,24.2,-,N/A,,Overcast,60,2012-10-10 02:49:00